In Rescue
 
Open Full Screen Window  High Contrast Mode
Wind Gusting 00 knots
08
March 19, 2019 6:46 PM EDT
Weather Information
Wind Direction
  220 °
Wind Speed
  08 kt (9 mph)
Wind Gust
  00 kt (0 mph)
Altimeter
30.27 in
Visibility
10 SM
Temperature
08° C
46° F
Dewpoint
-02° C
28° F
Humidity
50%
Sky Condition
Clear
VFR

METAR KHYX 192246Z AUTO 22008KT 10SM CLR 08/M02 A3027 RMK AO2

FAA Disclaimer: The data displayed is for advisory purposes only and is not to be used for flight planning or operations.